createdAt,value
2023-04-10T00:00:16.556Z,11.84
2023-04-10T00:01:18.753Z,11.95
2023-04-10T00:02:21.018Z,12.17
2023-04-10T00:03:23.963Z,14.91
2023-04-10T00:04:26.305Z,15.22
2023-04-10T00:05:28.754Z,14.09
2023-04-10T00:06:31.964Z,10.74
2023-04-10T00:07:33.997Z,15.04
2023-04-10T00:08:35.873Z,14.55
2023-04-10T00:09:37.993Z,13.74
2023-04-10T00:10:39.972Z,15.73
2023-04-10T00:11:41.975Z,12.78
2023-04-10T00:12:43.982Z,12.99
2023-04-10T00:13:45.860Z,14.40
2023-04-10T00:14:47.820Z,16.33
2023-04-10T00:15:49.702Z,13.95
2023-04-10T00:16:51.755Z,13.25
2023-04-10T00:17:53.780Z,15.21
2023-04-10T00:18:55.915Z,15.32
2023-04-10T00:19:57.975Z,14.73
2023-04-10T00:21:02.946Z,13.91
2023-04-10T00:22:05.124Z,13.45
2023-04-10T00:23:07.047Z,13.48
2023-04-10T00:24:09.275Z,14.45
2023-04-10T00:25:11.338Z,13.05
2023-04-10T00:26:13.683Z,15.52
2023-04-10T00:27:18.340Z,13.66
2023-04-10T00:28:20.270Z,13.79
2023-04-10T00:29:23.236Z,15.83
2023-04-10T00:30:25.220Z,14.70
2023-04-10T00:31:27.496Z,14.89
2023-04-10T00:32:29.534Z,14.58
2023-04-10T00:33:31.501Z,13.73
2023-04-10T00:34:33.446Z,15.58
2023-04-10T00:35:35.397Z,14.91
2023-04-10T00:36:38.707Z,17.30
2023-04-10T00:37:40.598Z,15.01
2023-04-10T00:38:42.486Z,14.82
2023-04-10T00:39:44.626Z,14.69
2023-04-10T00:40:46.593Z,14.26
2023-04-10T00:41:48.594Z,18.59
2023-04-10T00:42:50.797Z,14.05
2023-04-10T00:43:56.793Z,14.53
2023-04-10T00:44:59.730Z,15.13
2023-04-10T00:46:03.646Z,14.19
2023-04-10T00:47:06.670Z,15.88
2023-04-10T00:48:08.893Z,17.39
2023-04-10T00:49:10.917Z,16.47
2023-04-10T00:50:13.943Z,14.63
2023-04-10T00:51:16.815Z,15.84
2023-04-10T00:52:19.754Z,17.67
2023-04-10T00:53:22.498Z,17.52
2023-04-10T00:54:24.748Z,14.79
2023-04-10T00:55:26.723Z,18.63
2023-04-10T00:56:30.913Z,15.79
2023-04-10T00:57:33.271Z,16.35
2023-04-10T00:58:35.228Z,16.39
2023-04-10T00:59:37.760Z,17.24
2023-04-10T01:00:40.358Z,15.68
2023-04-10T01:01:42.827Z,15.61
2023-04-10T01:02:45.136Z,18.65
2023-04-10T01:03:47.406Z,15.44
2023-04-10T01:04:49.518Z,15.07
2023-04-10T01:05:55.181Z,14.27
2023-04-10T01:07:03.832Z,15.69
2023-04-10T01:08:12.118Z,14.77
2023-04-10T01:10:34.501Z,18.37
2023-04-10T01:11:46.240Z,16.42
2023-04-10T01:14:10.897Z,15.18
2023-04-10T01:15:16.566Z,17.45
2023-04-10T01:17:38.484Z,19.38
2023-04-10T01:18:50.165Z,18.01
2023-04-10T01:19:58.915Z,20.33
2023-04-10T01:22:07.784Z,20.43
2023-04-10T01:23:22.625Z,18.17
2023-04-10T01:24:31.409Z,18.72
2023-04-10T01:25:52.561Z,17.71
2023-04-10T01:27:18.626Z,16.13
2023-04-10T01:28:44.295Z,17.51
2023-04-10T01:29:50.120Z,17.03
2023-04-10T01:30:56.092Z,17.20
2023-04-10T01:32:02.885Z,16.86
2023-04-10T01:33:08.567Z,17.76
2023-04-10T01:34:20.548Z,16.03
2023-04-10T01:35:25.040Z,17.77
2023-04-10T01:36:30.896Z,17.95
2023-04-10T01:37:36.593Z,19.38
2023-04-10T01:38:42.367Z,15.75
2023-04-10T01:39:48.170Z,17.38
2023-04-10T01:40:52.754Z,17.92
2023-04-10T01:41:57.726Z,16.51
2023-04-10T01:43:01.708Z,17.70
2023-04-10T01:44:04.825Z,17.89
2023-04-10T01:45:10.675Z,17.45
2023-04-10T01:46:13.294Z,18.33
2023-04-10T01:47:16.417Z,17.50
2023-04-10T01:48:19.259Z,16.80
2023-04-10T01:49:23.150Z,15.31
2023-04-10T01:50:27.314Z,15.29
2023-04-10T01:51:32.010Z,17.79
2023-04-10T01:52:35.359Z,15.96
2023-04-10T01:53:38.562Z,16.89
2023-04-10T01:54:43.848Z,19.04
2023-04-10T01:55:48.640Z,16.42
2023-04-10T01:56:52.702Z,15.31
2023-04-10T01:57:55.379Z,19.45
2023-04-10T01:58:58.502Z,20.63
2023-04-10T02:00:00.968Z,16.17
2023-04-10T02:01:03.209Z,18.03
2023-04-10T02:02:05.494Z,20.73
2023-04-10T02:03:08.642Z,18.09
2023-04-10T02:04:11.052Z,17.87
2023-04-10T02:05:15.964Z,17.43
2023-04-10T02:06:30.833Z,16.69
2023-04-10T02:07:56.373Z,16.12
2023-04-10T02:09:14.034Z,17.07
2023-04-10T02:10:26.298Z,19.04
2023-04-10T02:11:37.648Z,18.06
2023-04-10T02:13:43.995Z,17.88
2023-04-10T02:14:48.772Z,19.41
2023-04-10T02:15:53.729Z,18.42
2023-04-10T02:16:56.872Z,19.74
2023-04-10T02:18:01.590Z,19.97
2023-04-10T02:19:06.149Z,22.23
2023-04-10T02:20:10.233Z,17.88
2023-04-10T02:21:14.100Z,22.00
2023-04-10T02:22:16.670Z,16.87
2023-04-10T02:23:19.845Z,20.02
2023-04-10T02:24:22.755Z,18.96
2023-04-10T02:25:26.232Z,18.75
2023-04-10T02:26:28.388Z,17.41
2023-04-10T02:27:32.081Z,17.87
2023-04-10T02:28:34.343Z,17.28
2023-04-10T02:29:36.434Z,20.13
2023-04-10T02:30:38.404Z,19.18
2023-04-10T02:31:41.598Z,16.41
2023-04-10T02:32:43.765Z,19.62
2023-04-10T02:33:46.573Z,17.53
2023-04-10T02:34:48.500Z,16.34
2023-04-10T02:35:50.702Z,19.13
2023-04-10T02:36:52.896Z,18.17
2023-04-10T02:37:54.911Z,19.67
2023-04-10T02:38:56.891Z,17.54
2023-04-10T02:39:59.480Z,17.46
2023-04-10T02:41:01.752Z,17.41
2023-04-10T02:42:04.758Z,17.67
2023-04-10T02:43:07.564Z,19.75
2023-04-10T02:44:09.773Z,17.46
2023-04-10T02:45:11.774Z,19.50
2023-04-10T02:46:13.914Z,17.50
2023-04-10T02:47:15.855Z,17.95
2023-04-10T02:48:17.911Z,18.83
2023-04-10T02:49:19.805Z,19.21
2023-04-10T02:50:21.873Z,17.13
2023-04-10T02:51:23.770Z,17.01
2023-04-10T02:52:25.997Z,16.95
2023-04-10T02:53:27.986Z,16.59
2023-04-10T02:54:31.086Z,17.18
2023-04-10T02:55:32.964Z,17.47
2023-04-10T02:56:34.933Z,15.75
2023-04-10T02:57:36.972Z,16.62
2023-04-10T02:58:38.939Z,18.55
2023-04-10T02:59:40.817Z,18.19
2023-04-10T03:00:49.668Z,16.77
2023-04-10T03:01:51.751Z,17.28
2023-04-10T03:02:54.121Z,19.47
2023-04-10T03:03:56.513Z,19.03
2023-04-10T03:05:00.860Z,15.86
2023-04-10T03:06:03.303Z,17.06
2023-04-10T03:07:05.314Z,19.88
2023-04-10T03:08:07.503Z,18.15
2023-04-10T03:09:09.478Z,17.60
2023-04-10T03:10:12.036Z,17.21
2023-04-10T03:11:13.914Z,17.57
2023-04-10T03:12:15.775Z,18.58
2023-04-10T03:13:17.648Z,17.25
2023-04-10T03:14:19.529Z,17.18
2023-04-10T03:15:21.491Z,16.46
2023-04-10T03:16:23.992Z,17.99
2023-04-10T03:17:26.170Z,17.57
2023-04-10T03:18:28.147Z,14.86
2023-04-10T03:19:30.118Z,15.65
2023-04-10T03:20:33.381Z,17.86
2023-04-10T03:21:35.324Z,18.65
2023-04-10T03:22:37.271Z,18.41
2023-04-10T03:23:39.366Z,16.73
2023-04-10T03:24:41.717Z,16.47
2023-04-10T03:25:43.620Z,16.76
2023-04-10T03:26:45.801Z,17.37
2023-04-10T03:27:47.681Z,17.91
2023-04-10T03:28:49.664Z,16.15
2023-04-10T03:29:52.362Z,17.35
2023-04-10T03:30:56.389Z,17.95
2023-04-10T03:31:58.454Z,15.97
2023-04-10T03:33:00.465Z,18.09
2023-04-10T03:34:02.789Z,16.91
2023-04-10T03:35:06.789Z,21.62
2023-04-10T03:36:09.540Z,18.61
2023-04-10T03:37:11.543Z,18.39
2023-04-10T03:38:14.292Z,18.20
2023-04-10T03:39:16.514Z,15.91
2023-04-10T03:40:19.183Z,16.52
2023-04-10T03:41:22.194Z,16.44
2023-04-10T03:42:24.904Z,17.64
2023-04-10T03:43:26.853Z,16.61
2023-04-10T03:44:28.710Z,16.99
2023-04-10T03:45:31.005Z,17.91
2023-04-10T03:46:33.201Z,16.95
2023-04-10T03:47:35.264Z,16.73
2023-04-10T03:48:37.298Z,20.30
2023-04-10T03:49:39.179Z,20.21
2023-04-10T03:50:41.134Z,18.49
2023-04-10T03:51:42.994Z,17.82
2023-04-10T03:52:45.816Z,17.68
2023-04-10T03:53:47.782Z,19.50
2023-04-10T03:54:49.656Z,19.03
2023-04-10T03:55:51.550Z,15.87
2023-04-10T03:56:55.649Z,23.09
2023-04-10T03:58:00.570Z,17.82
2023-04-10T03:59:02.479Z,16.06
2023-04-10T04:00:06.014Z,19.19
2023-04-10T04:01:08.460Z,16.31
2023-04-10T04:02:10.818Z,18.10
2023-04-10T04:03:13.542Z,17.52
2023-04-10T04:04:15.904Z,17.00
2023-04-10T04:05:18.460Z,14.88
2023-04-10T04:06:20.452Z,16.82
2023-04-10T04:07:22.315Z,19.64
2023-04-10T04:08:24.381Z,15.86
2023-04-10T04:09:26.258Z,17.85
2023-04-10T04:10:28.433Z,17.42
2023-04-10T04:11:30.394Z,15.98
2023-04-10T04:12:33.328Z,18.57
2023-04-10T04:13:35.193Z,17.23
2023-04-10T04:14:37.079Z,17.37
2023-04-10T04:15:39.056Z,16.69
2023-04-10T04:16:41.373Z,17.10
2023-04-10T04:17:43.452Z,16.96
2023-04-10T04:18:45.860Z,16.93
2023-04-10T04:19:47.763Z,16.94
2023-04-10T04:20:49.826Z,18.77
2023-04-10T04:21:52.198Z,19.99
2023-04-10T04:22:54.076Z,17.91
2023-04-10T04:23:55.956Z,17.47
2023-04-10T04:24:57.904Z,18.91
2023-04-10T04:25:59.777Z,21.77
2023-04-10T04:27:01.758Z,19.22
2023-04-10T04:28:04.014Z,20.70
2023-04-10T04:29:05.874Z,22.83
2023-04-10T04:30:09.292Z,18.95
2023-04-10T04:31:11.207Z,18.95
2023-04-10T04:32:13.221Z,17.84
2023-04-10T04:33:15.325Z,17.08
2023-04-10T04:34:17.219Z,19.07
2023-04-10T04:35:19.143Z,19.03
2023-04-10T04:36:21.249Z,18.87
2023-04-10T04:37:23.100Z,20.69
2023-04-10T04:38:24.956Z,21.67
2023-04-10T04:39:26.856Z,17.99
2023-04-10T04:40:28.925Z,17.51
2023-04-10T04:41:31.004Z,18.47
2023-04-10T04:42:32.902Z,20.15
2023-04-10T04:43:34.954Z,17.66
2023-04-10T04:44:36.827Z,16.77
2023-04-10T04:45:38.834Z,20.65
2023-04-10T04:46:44.509Z,19.96
2023-04-10T04:47:46.096Z,16.01
2023-04-10T04:48:48.289Z,19.11
2023-04-10T04:49:50.459Z,16.37
2023-04-10T04:50:53.339Z,17.06
2023-04-10T04:51:55.221Z,18.13
2023-04-10T04:52:57.108Z,17.10
2023-04-10T04:53:59.153Z,20.44
2023-04-10T04:55:01.034Z,15.37
2023-04-10T04:56:03.302Z,20.88
2023-04-10T04:57:07.844Z,16.48
2023-04-10T04:58:09.731Z,18.02
2023-04-10T04:59:11.604Z,18.62
2023-04-10T05:00:13.958Z,22.73
2023-04-10T05:01:17.215Z,18.69
2023-04-10T05:02:19.511Z,16.18
2023-04-10T05:03:21.869Z,18.89
2023-04-10T05:04:24.145Z,16.27
2023-04-10T05:05:26.277Z,22.39
2023-04-10T05:06:28.356Z,17.75
2023-04-10T05:07:30.213Z,17.35
2023-04-10T05:08:32.906Z,18.45
2023-04-10T05:09:34.941Z,18.65
2023-04-10T05:10:38.214Z,17.91
2023-04-10T05:11:40.996Z,17.89
2023-04-10T05:12:42.937Z,21.39
2023-04-10T05:13:44.812Z,19.99
2023-04-10T05:14:47.072Z,18.37
2023-04-10T05:15:49.008Z,18.11
2023-04-10T05:16:51.177Z,18.22
2023-04-10T05:17:53.271Z,16.81
2023-04-10T05:18:56.371Z,20.63
2023-04-10T05:19:58.909Z,15.74
2023-04-10T05:21:03.746Z,19.76
2023-04-10T05:22:05.984Z,17.25
2023-04-10T05:23:07.981Z,19.99
2023-04-10T05:24:09.986Z,14.55
2023-04-10T05:25:12.239Z,16.90
2023-04-10T05:26:14.421Z,18.93
2023-04-10T05:27:17.983Z,14.77
2023-04-10T05:28:20.077Z,20.72
2023-04-10T05:29:22.071Z,17.77
2023-04-10T05:30:24.258Z,18.59
2023-04-10T05:31:26.159Z,17.04
2023-04-10T05:32:28.140Z,17.23
2023-04-10T05:33:30.071Z,16.67
2023-04-10T05:34:33.105Z,16.38
2023-04-10T05:35:35.182Z,16.38
2023-04-10T05:36:37.411Z,16.98
2023-04-10T05:37:39.284Z,15.33
2023-04-10T05:38:41.281Z,16.65
2023-04-10T05:39:43.170Z,17.69
2023-04-10T05:40:45.252Z,16.27
2023-04-10T05:41:47.149Z,17.49
2023-04-10T05:42:49.020Z,17.47
2023-04-10T05:43:50.889Z,17.96
2023-04-10T05:44:53.079Z,18.51
2023-04-10T05:45:55.104Z,18.28
2023-04-10T05:46:57.468Z,14.89
2023-04-10T05:47:59.453Z,18.89
2023-04-10T05:49:01.721Z,18.81
2023-04-10T05:50:05.099Z,17.87
2023-04-10T05:51:07.373Z,17.67
2023-04-10T05:52:09.343Z,17.85
2023-04-10T05:53:13.795Z,16.22
2023-04-10T05:54:16.269Z,17.63
2023-04-10T05:55:18.184Z,19.85
2023-04-10T05:56:20.264Z,17.30
2023-04-10T05:57:22.940Z,15.95
2023-04-10T05:58:26.195Z,16.89
2023-04-10T05:59:28.064Z,17.94
2023-04-10T06:00:30.320Z,17.51
2023-04-10T06:01:32.532Z,19.45
2023-04-10T06:02:34.619Z,16.55
2023-04-10T06:03:36.715Z,15.71
2023-04-10T06:04:39.013Z,16.12
2023-04-10T06:05:41.348Z,20.01
2023-04-10T06:06:43.425Z,16.15
2023-04-10T06:07:45.295Z,15.33
2023-04-10T06:08:47.365Z,15.03
2023-04-10T06:09:49.715Z,15.54
2023-04-10T06:10:51.784Z,17.96
2023-04-10T06:11:53.656Z,15.59
2023-04-10T06:12:56.024Z,16.47
2023-04-10T06:13:57.895Z,16.09
2023-04-10T06:14:59.944Z,18.25
2023-04-10T06:16:02.312Z,17.79
2023-04-10T06:17:04.236Z,15.49
2023-04-10T06:18:06.097Z,17.13
2023-04-10T06:19:08.100Z,18.13
2023-04-10T06:20:11.495Z,19.17
2023-04-10T06:21:13.380Z,13.48
2023-04-10T06:22:15.433Z,16.45
2023-04-10T06:23:17.319Z,16.41
2023-04-10T06:24:19.226Z,15.15
2023-04-10T06:25:21.102Z,15.98
2023-04-10T06:26:24.932Z,16.22
2023-04-10T06:27:28.312Z,15.42
2023-04-10T06:28:31.178Z,14.49
2023-04-10T06:29:33.366Z,18.00
2023-04-10T06:30:35.330Z,14.52
2023-04-10T06:31:37.225Z,19.25
2023-04-10T06:32:39.276Z,15.17
2023-04-10T06:33:41.155Z,15.93
2023-04-10T06:34:43.064Z,14.71
2023-04-10T06:35:45.035Z,18.81
2023-04-10T06:36:47.091Z,21.12
2023-04-10T06:37:48.950Z,17.29
2023-04-10T06:38:50.964Z,15.49
2023-04-10T06:40:05.857Z,17.60
2023-04-10T06:41:08.432Z,17.08
2023-04-10T06:42:11.223Z,18.83
2023-04-10T06:43:13.095Z,16.64
2023-04-10T06:44:14.974Z,18.89
2023-04-10T06:45:16.843Z,18.36
2023-04-10T06:46:19.454Z,20.42
2023-04-10T06:47:21.403Z,20.50
2023-04-10T06:48:24.488Z,17.21
2023-04-10T06:49:27.436Z,20.54
2023-04-10T06:50:30.215Z,22.74
2023-04-10T06:51:33.168Z,18.49
2023-04-10T06:52:35.043Z,20.74
2023-04-10T06:53:37.115Z,21.01
2023-04-10T06:54:39.230Z,22.43
2023-04-10T06:55:41.519Z,22.14
2023-04-10T06:56:43.559Z,20.69
2023-04-10T06:57:45.544Z,19.67
2023-04-10T06:58:47.504Z,27.41
2023-04-10T06:59:49.477Z,21.59
2023-04-10T07:00:51.682Z,21.97
2023-04-10T07:01:53.740Z,22.49
2023-04-10T07:02:56.904Z,21.00
2023-04-10T07:03:58.992Z,27.07
2023-04-10T07:05:00.944Z,20.31
2023-04-10T07:06:03.518Z,21.01
2023-04-10T07:07:05.615Z,17.46
2023-04-10T07:08:07.491Z,22.46
2023-04-10T07:09:09.380Z,19.15
2023-04-10T07:10:11.341Z,19.73
2023-04-10T07:11:13.205Z,23.51
2023-04-10T07:12:15.844Z,20.62
2023-04-10T07:13:17.761Z,18.31
2023-04-10T07:14:19.636Z,23.33
2023-04-10T07:15:21.501Z,21.37
2023-04-10T07:16:23.955Z,20.53
2023-04-10T07:17:25.967Z,21.07
2023-04-10T07:18:27.952Z,17.63
2023-04-10T07:19:29.922Z,21.06
2023-04-10T07:20:31.908Z,20.98
2023-04-10T07:21:33.785Z,21.61
2023-04-10T07:22:35.812Z,20.79
2023-04-10T07:23:38.047Z,20.39
2023-04-10T07:24:39.902Z,21.58
2023-04-10T07:25:42.234Z,18.61
2023-04-10T07:26:46.105Z,18.21
2023-04-10T07:27:49.352Z,16.52
2023-04-10T07:28:51.528Z,19.79
2023-04-10T07:29:54.844Z,18.30
2023-04-10T07:30:56.967Z,20.02
2023-04-10T07:31:59.425Z,17.79
2023-04-10T07:33:01.749Z,19.39
2023-04-10T07:34:04.265Z,17.15
2023-04-10T07:35:07.582Z,17.26
2023-04-10T07:36:10.005Z,20.03
2023-04-10T07:37:12.039Z,20.07
2023-04-10T07:38:13.944Z,19.97
2023-04-10T07:39:15.934Z,17.59
2023-04-10T07:40:18.114Z,17.94
2023-04-10T07:41:20.079Z,16.87
2023-04-10T07:42:22.007Z,18.41
2023-04-10T07:43:24.603Z,16.18
2023-04-10T07:44:27.649Z,16.02
2023-04-10T07:45:29.786Z,12.81
2023-04-10T07:46:31.841Z,15.39
2023-04-10T07:47:33.950Z,21.17
2023-04-10T07:48:35.918Z,16.58
2023-04-10T07:49:37.934Z,14.25
2023-04-10T07:50:39.996Z,15.00
2023-04-10T07:51:42.245Z,14.05
2023-04-10T07:52:44.241Z,12.60
2023-04-10T07:53:46.725Z,10.82
2023-04-10T07:54:48.795Z,13.36
2023-04-10T07:55:50.772Z,13.01
2023-04-10T07:56:52.880Z,10.34
2023-04-10T07:57:55.117Z,12.55
2023-04-10T07:58:59.443Z,11.33
2023-04-10T08:00:04.958Z,11.65
2023-04-10T08:01:06.868Z,12.61
2023-04-10T08:02:08.943Z,11.71
2023-04-10T08:03:11.811Z,12.45
2023-04-10T08:04:13.949Z,10.97
2023-04-10T08:05:18.831Z,11.03
2023-04-10T08:06:21.913Z,10.25
2023-04-10T08:07:23.832Z,11.71
2023-04-10T08:08:26.378Z,11.08
2023-04-10T08:09:28.318Z,10.38
2023-04-10T08:10:30.588Z,9.19
2023-04-10T08:11:36.602Z,10.90
2023-04-10T08:12:38.042Z,10.69
2023-04-10T08:13:39.976Z,8.79
2023-04-10T08:14:41.861Z,9.53
2023-04-10T08:15:44.104Z,9.07
2023-04-10T08:16:46.335Z,8.22
2023-04-10T08:17:48.322Z,9.45
2023-04-10T08:18:51.391Z,8.55
2023-04-10T08:19:53.383Z,9.34
2023-04-10T08:20:55.328Z,8.03
2023-04-10T08:21:57.186Z,7.77
2023-04-10T08:23:09.200Z,9.06
2023-04-10T08:24:04.271Z,8.38
2023-04-10T08:25:06.814Z,7.72
2023-04-10T08:26:08.965Z,7.29
2023-04-10T08:27:10.948Z,7.57
2023-04-10T08:28:12.803Z,9.35
2023-04-10T08:29:14.677Z,9.17
2023-04-10T08:30:17.803Z,8.03
2023-04-10T08:31:21.840Z,8.79
2023-04-10T08:32:24.904Z,7.99
2023-04-10T08:33:27.476Z,7.73
2023-04-10T08:34:29.381Z,8.80
2023-04-10T08:35:31.360Z,8.52
2023-04-10T08:36:34.003Z,8.83
2023-04-10T08:37:35.907Z,6.53
2023-04-10T08:39:49.237Z,8.22
2023-04-10T08:40:51.225Z,7.57
2023-04-10T08:41:53.089Z,7.30
2023-04-10T08:42:54.978Z,9.67
2023-04-10T08:43:57.503Z,8.42
2023-04-10T08:44:59.739Z,8.12
2023-04-10T08:46:01.816Z,12.03
2023-04-10T08:47:05.262Z,15.21
2023-04-10T08:48:09.366Z,11.03
2023-04-10T08:50:36.811Z,9.07
2023-04-10T08:51:47.892Z,10.56
2023-04-10T08:52:52.628Z,8.53
2023-04-10T08:53:58.279Z,8.73
2023-04-10T08:55:04.064Z,8.82
2023-04-10T08:56:07.485Z,12.19
2023-04-10T08:57:13.189Z,10.15
2023-04-10T08:58:16.476Z,8.48
2023-04-10T08:59:18.978Z,10.74
2023-04-10T09:00:23.313Z,9.83
2023-04-10T09:01:25.339Z,9.81
2023-04-10T09:02:27.920Z,8.45
2023-04-10T09:03:30.680Z,8.41
2023-04-10T09:04:33.003Z,9.45
2023-04-10T09:05:35.886Z,9.57
2023-04-10T09:06:38.553Z,9.84
2023-04-10T09:07:40.620Z,8.28
2023-04-10T09:08:42.590Z,9.04
2023-04-10T09:09:44.551Z,11.47
2023-04-10T09:10:46.638Z,10.17
2023-04-10T09:11:55.052Z,10.12
2023-04-10T09:12:56.985Z,9.99
2023-04-10T09:13:58.856Z,9.97
2023-04-10T09:15:00.754Z,10.72
2023-04-10T09:16:03.759Z,8.68
2023-04-10T09:17:17.480Z,11.45
2023-04-10T09:18:19.504Z,7.83
2023-04-10T09:19:31.822Z,7.11
2023-04-10T09:20:34.860Z,8.99
2023-04-10T09:21:37.520Z,10.69
2023-04-10T09:22:39.491Z,9.27
2023-04-10T09:23:43.228Z,8.99
2023-04-10T09:24:46.618Z,9.34
2023-04-10T09:25:51.064Z,11.83
2023-04-10T09:26:53.422Z,9.29
2023-04-10T09:28:08.995Z,9.55
2023-04-10T09:29:11.013Z,9.32
2023-04-10T09:30:17.277Z,10.57
2023-04-10T09:31:31.865Z,8.29
2023-04-10T09:32:39.999Z,7.88
2023-04-10T09:33:42.031Z,7.18
2023-04-10T09:34:53.504Z,9.10
2023-04-10T09:37:00.975Z,9.46
2023-04-10T09:38:17.992Z,8.94
2023-04-10T09:39:21.242Z,10.12
2023-04-10T09:40:25.009Z,10.81
2023-04-10T09:41:31.123Z,9.74
2023-04-10T09:42:35.637Z,9.93
2023-04-10T09:43:37.564Z,8.91
2023-04-10T09:44:41.091Z,9.15
2023-04-10T09:45:53.029Z,8.92
2023-04-10T09:46:55.347Z,7.76
2023-04-10T09:48:02.144Z,8.22
2023-04-10T09:49:05.089Z,8.12
2023-04-10T09:50:08.543Z,7.80
2023-04-10T09:51:29.125Z,8.82
2023-04-10T09:52:33.912Z,8.33
2023-04-10T09:53:39.925Z,7.99
2023-04-10T09:54:41.970Z,7.92
2023-04-10T09:55:44.750Z,7.90
2023-04-10T09:56:48.511Z,7.06
2023-04-10T09:57:51.364Z,5.85
2023-04-10T09:58:59.606Z,8.82
2023-04-10T10:00:04.746Z,6.21
2023-04-10T10:01:07.712Z,6.71
2023-04-10T10:02:12.679Z,6.96
2023-04-10T10:03:19.319Z,6.61
2023-04-10T10:04:21.958Z,7.33
2023-04-10T10:05:24.367Z,5.87
2023-04-10T10:06:27.194Z,5.99
2023-04-10T10:07:30.863Z,6.71
2023-04-10T10:08:35.041Z,7.64
2023-04-10T10:09:37.327Z,4.60
2023-04-10T10:10:54.497Z,8.99
2023-04-10T10:11:57.880Z,6.16
2023-04-10T10:13:01.892Z,5.49
2023-04-10T10:14:07.598Z,6.41
2023-04-10T10:15:13.337Z,6.65
2023-04-10T10:16:22.419Z,6.13
2023-04-10T10:17:28.299Z,6.85
2023-04-10T10:18:36.901Z,7.31
2023-04-10T10:19:42.594Z,5.51
2023-04-10T10:20:45.560Z,7.19
2023-04-10T10:21:48.105Z,5.71
2023-04-10T10:22:50.743Z,4.81
2023-04-10T10:23:55.861Z,5.26
2023-04-10T10:24:59.926Z,4.72
2023-04-10T10:26:07.081Z,5.13
2023-04-10T10:27:09.632Z,5.08
2023-04-10T10:28:13.296Z,5.69
2023-04-10T10:29:15.519Z,5.34
2023-04-10T10:30:29.262Z,5.11
2023-04-10T10:31:25.338Z,4.88
2023-04-10T10:32:29.694Z,5.43
2023-04-10T10:33:34.323Z,5.58
2023-04-10T10:34:36.975Z,5.79
2023-04-10T10:35:40.316Z,4.93
2023-04-10T10:36:42.467Z,5.26
2023-04-10T10:37:45.245Z,4.59
2023-04-10T10:39:12.583Z,4.67
2023-04-10T10:40:18.668Z,4.28
2023-04-10T10:43:01.911Z,4.13
2023-04-10T10:44:16.933Z,4.56
2023-04-10T10:45:22.785Z,3.79
2023-04-10T10:46:50.153Z,4.58
2023-04-10T10:47:53.822Z,4.24
2023-04-10T10:48:58.263Z,4.62
2023-04-10T10:50:02.501Z,5.70
2023-04-10T10:51:05.029Z,3.06
2023-04-10T10:52:06.901Z,4.65
2023-04-10T10:53:12.538Z,2.88
2023-04-10T10:54:34.496Z,4.09
2023-04-10T10:55:37.805Z,4.23
2023-04-10T10:56:39.873Z,3.08
2023-04-10T10:57:46.581Z,4.67
2023-04-10T10:58:55.932Z,4.09
2023-04-10T10:59:58.250Z,3.85
2023-04-10T11:01:04.141Z,4.21
2023-04-10T11:02:14.040Z,3.42
2023-04-10T11:03:19.932Z,4.19
2023-04-10T11:04:44.668Z,3.77
2023-04-10T11:06:01.653Z,5.09
2023-04-10T11:07:03.551Z,5.64
2023-04-10T11:08:07.474Z,3.44
2023-04-10T11:09:13.118Z,6.87
2023-04-10T11:10:15.646Z,5.59
2023-04-10T11:11:22.061Z,12.21
2023-04-10T11:12:25.221Z,5.79
2023-04-10T11:13:27.480Z,3.49
2023-04-10T11:14:31.969Z,4.81
2023-04-10T11:15:37.101Z,4.45
2023-04-10T11:16:44.723Z,6.02
2023-04-10T11:17:50.550Z,3.82
2023-04-10T11:19:10.603Z,5.58
2023-04-10T11:20:01.709Z,4.19
2023-04-10T11:21:11.810Z,4.57
2023-04-10T11:22:13.744Z,4.06
2023-04-10T11:23:15.729Z,4.35
2023-04-10T11:24:18.233Z,4.59
2023-04-10T11:25:20.108Z,5.39
2023-04-10T11:26:37.373Z,5.16
2023-04-10T11:27:47.359Z,5.19
2023-04-10T11:28:49.813Z,5.93
2023-04-10T11:29:51.707Z,5.59
2023-04-10T11:30:53.884Z,5.38
2023-04-10T11:31:57.916Z,5.70
2023-04-10T11:33:01.293Z,6.32
2023-04-10T11:34:05.025Z,7.27
2023-04-10T11:35:08.658Z,6.04
2023-04-10T11:36:15.880Z,5.86
2023-04-10T11:37:23.849Z,5.39
2023-04-10T11:38:25.966Z,6.68
2023-04-10T11:39:33.342Z,5.35
2023-04-10T11:40:35.553Z,5.18
2023-04-10T11:41:39.955Z,6.76
2023-04-10T11:42:41.948Z,7.09
2023-04-10T11:43:43.891Z,6.79
2023-04-10T11:44:47.752Z,5.21
2023-04-10T11:45:49.838Z,9.40
2023-04-10T11:46:52.909Z,6.01
2023-04-10T11:47:54.920Z,7.17
2023-04-10T11:50:10.539Z,7.69
2023-04-10T11:51:13.840Z,7.29
2023-04-10T11:52:19.505Z,5.91
2023-04-10T11:53:21.734Z,7.28
2023-04-10T11:54:26.738Z,6.70
2023-04-10T11:58:25.436Z,7.93
2023-04-10T11:59:28.610Z,8.59
2023-04-10T12:00:30.588Z,8.54
2023-04-10T12:01:33.610Z,9.83
2023-04-10T12:02:51.530Z,9.06
2023-04-10T12:03:54.025Z,7.79
2023-04-10T12:04:59.473Z,9.21
2023-04-10T12:06:03.153Z,8.03
2023-04-10T12:07:05.530Z,8.48
2023-04-10T12:08:07.522Z,11.99
2023-04-10T12:09:18.005Z,7.53
2023-04-10T12:10:20.043Z,9.12
2023-04-10T12:12:37.897Z,12.12
2023-04-10T12:13:39.831Z,7.88
2023-04-10T12:14:42.313Z,8.41
2023-04-10T12:15:44.486Z,10.07
2023-04-10T12:16:48.401Z,12.00
2023-04-10T12:17:51.058Z,10.55
2023-04-10T12:18:54.059Z,12.07
2023-04-10T12:19:56.477Z,10.11
2023-04-10T12:20:59.585Z,8.98
2023-04-10T12:22:02.070Z,10.72
2023-04-10T12:23:06.071Z,12.34
2023-04-10T12:24:08.175Z,10.35
2023-04-10T12:25:11.995Z,9.87
2023-04-10T12:26:17.530Z,8.34
2023-04-10T12:27:24.531Z,11.81
2023-04-10T12:28:26.450Z,10.73
2023-04-10T12:29:29.218Z,10.67
2023-04-10T12:30:31.536Z,10.60
2023-04-10T12:31:35.401Z,9.13
2023-04-10T12:32:37.797Z,10.29
2023-04-10T12:33:41.596Z,14.24
2023-04-10T12:34:51.986Z,8.81
2023-04-10T12:35:54.641Z,9.33
2023-04-10T12:36:56.797Z,8.04
2023-04-10T12:37:58.687Z,10.16
2023-04-10T12:39:03.519Z,13.27
2023-04-10T12:40:07.074Z,9.12
2023-04-10T12:41:10.486Z,12.28
2023-04-10T12:42:14.977Z,8.93
2023-04-10T12:43:38.364Z,10.26
2023-04-10T12:44:55.499Z,8.31
2023-04-10T12:45:58.006Z,11.82
2023-04-10T12:47:00.713Z,8.37
2023-04-10T12:48:03.081Z,10.49
2023-04-10T12:49:14.145Z,16.47
2023-04-10T12:50:19.430Z,27.76
2023-04-10T12:53:08.798Z,12.72
2023-04-10T12:54:10.843Z,10.84
2023-04-10T12:55:18.036Z,14.76
2023-04-10T12:56:20.397Z,10.83
2023-04-10T12:57:26.417Z,10.81
2023-04-10T12:58:29.525Z,9.61
2023-04-10T12:59:31.759Z,11.39
2023-04-10T13:00:34.006Z,7.48
2023-04-10T13:01:39.449Z,9.47
2023-04-10T13:02:42.384Z,7.66
2023-04-10T13:03:44.723Z,7.64
2023-04-10T13:04:47.008Z,9.21
2023-04-10T13:05:50.316Z,10.09
2023-04-10T13:06:52.321Z,9.84
2023-04-10T13:07:54.677Z,8.31
2023-04-10T13:08:56.763Z,9.86
2023-04-10T13:09:59.298Z,6.18
2023-04-10T13:11:01.327Z,7.93
2023-04-10T13:12:03.790Z,7.97
2023-04-10T13:13:05.664Z,7.85
2023-04-10T13:14:08.430Z,8.73
2023-04-10T13:15:10.276Z,7.47
2023-04-10T13:16:12.569Z,7.36
2023-04-10T13:17:15.420Z,7.27
2023-04-10T13:18:17.354Z,7.14
2023-04-10T13:19:19.541Z,8.85
2023-04-10T13:20:21.896Z,11.23
2023-04-10T13:21:24.035Z,10.62
2023-04-10T13:22:25.893Z,9.90
2023-04-10T13:23:27.767Z,9.73
2023-04-10T13:24:30.251Z,10.82
2023-04-10T13:26:51.405Z,10.66
2023-04-10T13:27:53.424Z,7.49
2023-04-10T13:28:55.461Z,10.97
2023-04-10T13:29:57.599Z,8.35
2023-04-10T13:30:59.868Z,9.15
2023-04-10T13:32:04.883Z,7.83
2023-04-10T13:33:08.283Z,10.13
2023-04-10T13:34:10.475Z,13.92
2023-04-10T13:35:12.553Z,12.62
2023-04-10T13:36:15.011Z,10.38
2023-04-10T13:37:17.102Z,7.94
2023-04-10T13:38:20.781Z,9.83
2023-04-10T13:39:22.769Z,7.46
2023-04-10T13:40:24.892Z,7.30
2023-04-10T13:41:26.765Z,8.26
2023-04-10T13:42:28.746Z,7.51
2023-04-10T13:43:31.750Z,7.96
2023-04-10T13:44:33.691Z,7.41
2023-04-10T13:45:36.288Z,8.67
2023-04-10T13:46:38.383Z,4.80
2023-04-10T13:47:41.248Z,6.92
2023-04-10T13:48:43.315Z,5.80
2023-04-10T13:49:45.181Z,6.21
2023-04-10T13:50:47.226Z,7.30
2023-04-10T13:51:49.328Z,6.23
2023-04-10T13:52:52.316Z,5.89
2023-04-10T13:53:55.182Z,8.29
2023-04-10T13:54:57.138Z,6.87
2023-04-10T13:55:59.012Z,5.69
2023-04-10T13:57:01.197Z,6.07
2023-04-10T13:58:03.165Z,5.26
2023-04-10T13:59:05.190Z,5.33
2023-04-10T14:00:08.263Z,4.75
2023-04-10T14:01:10.180Z,5.78
2023-04-10T14:02:12.290Z,4.59
2023-04-10T14:03:14.402Z,5.85
2023-04-10T14:04:16.454Z,5.30
2023-04-10T14:05:18.453Z,6.17
2023-04-10T14:06:20.732Z,5.17
2023-04-10T14:07:23.443Z,5.17